Time;durP1;ratioP1;P1;durP2;ratioP2;P2;SDS_P1;SDS_P2;PMS_P1;PMS_P2;Temp;Humidity;BMP_temperature;BMP_pressure;BME280_temperature;BME280_humidity;BME280_pressure;Samples;Min_cycle;Max_cycle;Signal;HPM_P1;HPM_P2
2021/08/08 00:00:58;;;;;;;2.95;2.15;;;15.80;99.90;;;;;;5095884;28;20077;-85
2021/08/08 00:03:23;;;;;;;4.28;1.92;;;15.80;99.90;;;;;;5108031;28;20035;-85
2021/08/08 00:05:49;;;;;;;4.00;2.20;;;15.90;99.90;;;;;;5093072;28;20043;-84
2021/08/08 00:08:17;;;;;;;5.65;2.30;;;15.90;99.90;;;;;;5113762;28;20059;-84
2021/08/08 00:10:43;;;;;;;5.05;2.20;;;15.90;99.90;;;;;;5115322;28;20057;-84
2021/08/08 00:13:09;;;;;;;3.65;2.30;;;15.90;99.90;;;;;;5076740;28;20501;-84
2021/08/08 00:15:35;;;;;;;3.13;2.40;;;15.90;99.90;;;;;;5086683;28;20408;-84
2021/08/08 00:18:03;;;;;;;3.80;2.40;;;15.90;99.90;;;;;;5111355;28;20399;-85
2021/08/08 00:20:29;;;;;;;4.50;2.78;;;15.90;99.90;;;;;;5112882;28;20038;-84
2021/08/08 00:22:55;;;;;;;6.13;2.55;;;15.90;99.90;;;;;;5077246;28;20040;-84
2021/08/08 00:25:21;;;;;;;5.10;2.50;;;15.90;99.90;;;;;;5070706;28;20376;-84
2021/08/08 00:27:47;;;;;;;3.58;2.10;;;15.90;99.90;;;;;;5042982;28;20441;-84
2021/08/08 00:30:13;;;;;;;4.72;2.60;;;15.90;99.90;;;;;;5077750;28;20028;-84
2021/08/08 00:32:40;;;;;;;6.70;2.90;;;15.80;99.90;;;;;;5114894;28;20495;-84
2021/08/08 00:35:10;;;;;;;5.00;2.88;;;15.90;99.90;;;;;;5092715;28;20048;-84
2021/08/08 00:37:43;;;;;;;6.53;2.83;;;15.90;99.90;;;;;;5096620;28;20042;-84
2021/08/08 00:40:11;;;;;;;4.05;2.60;;;15.90;99.90;;;;;;5096805;28;20533;-85
2021/08/08 00:42:37;;;;;;;5.22;3.05;;;15.80;99.90;;;;;;5089489;28;20034;-84
2021/08/08 00:45:04;;;;;;;4.93;3.15;;;15.70;99.90;;;;;;5076802;28;20059;-84
2021/08/08 00:47:31;;;;;;;8.05;2.67;;;15.80;99.90;;;;;;5111808;28;20057;-84
2021/08/08 00:49:57;;;;;;;6.65;2.95;;;16.30;99.90;;;;;;5076149;28;20070;-84
2021/08/08 00:52:23;;;;;;;12.93;3.05;;;15.80;99.90;;;;;;5096171;28;20040;-84
2021/08/08 00:54:49;;;;;;;5.22;3.10;;;15.90;99.90;;;;;;5079610;28;20043;-84
2021/08/08 00:57:15;;;;;;;5.72;3.25;;;15.80;99.90;;;;;;5108992;28;20032;-84
2021/08/08 00:59:41;;;;;;;5.07;3.13;;;15.80;99.90;;;;;;5094490;28;20471;-84
2021/08/08 01:02:08;;;;;;;7.07;3.20;;;15.80;99.90;;;;;;5095955;28;20066;-84
2021/08/08 01:04:37;;;;;;;5.65;2.92;;;15.80;99.90;;;;;;5083010;28;20039;-84
2021/08/08 01:07:08;;;;;;;3.58;2.80;;;15.80;99.90;;;;;;5096273;28;20042;-84
2021/08/08 01:09:39;;;;;;;4.97;2.88;;;15.80;99.90;;;;;;5112085;28;20046;-84
2021/08/08 01:12:09;;;;;;;4.65;3.08;;;15.80;99.90;;;;;;5096051;28;20038;-84
2021/08/08 01:14:36;;;;;;;8.02;3.38;;;15.80;99.90;;;;;;5077698;28;20039;-84
2021/08/08 01:17:04;;;;;;;7.80;3.13;;;15.80;99.90;;;;;;5093455;28;20162;-84
2021/08/08 01:19:37;;;;;;;6.03;3.35;;;15.80;99.90;;;;;;5077548;28;20032;-84
2021/08/08 01:22:05;;;;;;;5.80;3.50;;;15.80;99.90;;;;;;5095803;28;20039;-84
2021/08/08 01:24:31;;;;;;;6.72;2.70;;;15.80;99.90;;;;;;5095916;28;20135;-84
2021/08/08 01:26:59;;;;;;;6.07;2.53;;;15.90;99.90;;;;;;5094495;28;20566;-84
2021/08/08 01:29:25;;;;;;;6.22;3.20;;;15.80;99.90;;;;;;5113748;28;20089;-84
2021/08/08 01:31:53;;;;;;;7.95;3.15;;;15.80;99.90;;;;;;5088018;28;20348;-81
2021/08/08 01:34:18;;;;;;;5.10;2.83;;;15.80;99.90;;;;;;5111735;28;20523;-81
2021/08/08 01:36:46;;;;;;;6.68;3.08;;;15.90;99.90;;;;;;5113399;28;20100;-81
2021/08/08 01:39:18;;;;;;;6.30;3.33;;;15.90;99.90;;;;;;5095124;28;20047;-81
2021/08/08 01:41:57;;;;;;;5.97;3.40;;;15.80;99.90;;;;;;5111714;28;20039;-82
2021/08/08 01:44:25;;;;;;;6.60;3.08;;;15.90;99.90;;;;;;5103018;28;20043;-82
2021/08/08 01:46:56;;;;;;;4.82;3.03;;;15.80;99.90;;;;;;5092691;28;20039;-82
2021/08/08 01:49:28;;;;;;;6.18;3.30;;;15.90;99.90;;;;;;5094123;28;20034;-82
2021/08/08 01:51:57;;;;;;;5.05;3.22;;;15.90;99.90;;;;;;5095240;28;20035;-82
2021/08/08 01:54:24;;;;;;;7.50;3.72;;;15.90;99.90;;;;;;5111005;28;20118;-82
2021/08/08 01:56:51;;;;;;;5.68;2.95;;;15.90;99.90;;;;;;5076170;28;20400;-82
2021/08/08 01:59:18;;;;;;;8.38;3.63;;;15.90;99.90;;;;;;5073684;28;20490;-81
2021/08/08 02:01:47;;;;;;;6.18;3.40;;;15.90;99.90;;;;;;5066885;28;20381;-81
2021/08/08 02:04:25;;;;;;;6.18;3.53;;;15.80;99.90;;;;;;5112963;28;20048;-81
2021/08/08 02:06:51;;;;;;;9.40;3.20;;;15.90;99.90;;;;;;5086010;28;20031;-81
2021/08/08 02:09:18;;;;;;;4.35;3.10;;;15.90;99.90;;;;;;5088726;28;20032;-82
2021/08/08 02:11:44;;;;;;;6.45;3.03;;;15.90;99.90;;;;;;5099834;28;20039;-82
2021/08/08 02:14:11;;;;;;;6.95;3.25;;;15.90;99.90;;;;;;5088158;28;20040;-81
2021/08/08 02:16:38;;;;;;;6.75;3.40;;;15.90;99.90;;;;;;5079847;28;20074;-82
2021/08/08 02:19:04;;;;;;;6.32;3.30;;;15.90;99.90;;;;;;5103878;28;20089;-81
2021/08/08 02:21:30;;;;;;;7.13;3.20;;;15.90;99.90;;;;;;5091315;28;20035;-81
2021/08/08 02:23:58;;;;;;;6.88;3.58;;;16.00;99.90;;;;;;5058278;28;20035;-82
2021/08/08 02:26:24;;;;;;;5.88;3.33;;;16.00;99.90;;;;;;5093332;28;20036;-81
2021/08/08 02:28:50;;;;;;;6.75;3.33;;;15.90;99.90;;;;;;5074408;28;20024;-81
2021/08/08 02:31:18;;;;;;;8.93;3.33;;;15.90;99.90;;;;;;5068886;28;20036;-81
2021/08/08 02:33:47;;;;;;;4.47;2.88;;;16.00;99.90;;;;;;5084585;28;20040;-81
2021/08/08 02:36:13;;;;;;;6.07;3.33;;;16.00;99.90;;;;;;5094463;28;20062;-81
2021/08/08 02:38:39;;;;;;;6.70;3.40;;;16.00;99.90;;;;;;5056062;28;20044;-81
2021/08/08 02:41:05;;;;;;;6.03;3.60;;;16.00;99.90;;;;;;5072052;28;20035;-82
2021/08/08 02:43:31;;;;;;;12.20;3.75;;;16.00;99.90;;;;;;5110548;28;20039;-81
2021/08/08 02:45:57;;;;;;;7.07;3.80;;;16.00;99.90;;;;;;5090477;28;20430;-81
2021/08/08 02:48:23;;;;;;;8.70;3.83;;;16.00;99.90;;;;;;5094321;28;20043;-81
2021/08/08 02:50:49;;;;;;;10.40;4.22;;;16.00;99.90;;;;;;5111315;28;20118;-81
2021/08/08 02:53:15;;;;;;;6.38;3.85;;;16.00;99.90;;;;;;5057637;28;20115;-81
2021/08/08 02:55:41;;;;;;;10.23;4.45;;;16.00;99.90;;;;;;5092220;28;20457;-81
2021/08/08 02:58:07;;;;;;;9.35;4.07;;;16.00;99.90;;;;;;5075537;28;20040;-81
2021/08/08 03:00:33;;;;;;;6.38;4.00;;;16.00;99.90;;;;;;5072341;28;20043;-81
2021/08/08 03:02:59;;;;;;;7.60;4.45;;;16.00;99.90;;;;;;5103823;28;20422;-81
2021/08/08 03:05:25;;;;;;;5.82;4.07;;;16.00;99.90;;;;;;5077128;28;20088;-81
2021/08/08 03:07:51;;;;;;;6.05;4.32;;;16.10;99.90;;;;;;5111469;28;20046;-82
2021/08/08 03:10:17;;;;;;;6.00;4.35;;;16.00;99.90;;;;;;5061005;28;20051;-82
2021/08/08 03:12:42;;;;;;;9.10;4.30;;;16.00;99.90;;;;;;5076402;28;20035;-81
2021/08/08 03:15:09;;;;;;;7.63;4.57;;;16.00;99.90;;;;;;5094088;28;20118;-81
2021/08/08 03:17:35;;;;;;;6.65;4.72;;;16.00;99.90;;;;;;5073548;28;20040;-81
2021/08/08 03:20:01;;;;;;;8.32;5.10;;;16.00;99.90;;;;;;5076436;28;20036;-81
2021/08/08 03:22:27;;;;;;;9.27;4.95;;;16.00;99.90;;;;;;5090067;28;20036;-82
2021/08/08 03:24:52;;;;;;;6.20;4.55;;;16.00;99.90;;;;;;5095301;28;20069;-81
2021/08/08 03:27:18;;;;;;;5.50;4.68;;;16.00;99.90;;;;;;5047759;28;20101;-84
2021/08/08 03:29:45;;;;;;;7.55;4.75;;;16.00;99.90;;;;;;5113004;28;20043;-85
2021/08/08 03:32:11;;;;;;;6.93;4.55;;;16.00;99.90;;;;;;5096326;28;20040;-85
2021/08/08 03:34:36;;;;;;;7.93;4.93;;;16.00;99.90;;;;;;5115658;28;20058;-85
2021/08/08 03:37:05;;;;;;;6.70;5.03;;;16.00;99.90;;;;;;5047962;28;20447;-85
2021/08/08 03:39:31;;;;;;;6.93;5.25;;;16.00;99.90;;;;;;5081283;28;20073;-83
2021/08/08 03:41:57;;;;;;;7.95;5.13;;;16.00;99.90;;;;;;5076723;28;20032;-84
2021/08/08 03:44:23;;;;;;;6.50;5.35;;;16.00;99.90;;;;;;5088606;28;20118;-83
2021/08/08 03:46:49;;;;;;;8.23;4.80;;;16.00;99.90;;;;;;5076174;28;20384;-84
2021/08/08 03:49:15;;;;;;;7.45;6.20;;;16.00;99.90;;;;;;5052180;28;20047;-84
2021/08/08 03:51:41;;;;;;;8.63;5.43;;;16.00;99.90;;;;;;5113211;28;20043;-83
2021/08/08 03:54:07;;;;;;;8.30;5.90;;;16.00;99.90;;;;;;5080294;28;20084;-83
2021/08/08 03:56:35;;;;;;;9.00;6.22;;;16.00;99.90;;;;;;5075054;28;20044;-84
2021/08/08 03:59:02;;;;;;;7.35;6.28;;;16.00;99.90;;;;;;5064763;28;20048;-85
2021/08/08 04:01:29;;;;;;;11.00;6.65;;;16.00;99.90;;;;;;5104409;28;20043;-84
2021/08/08 04:03:55;;;;;;;11.77;6.45;;;16.10;99.90;;;;;;5059586;28;20040;-85
2021/08/08 04:06:21;;;;;;;8.05;6.53;;;16.00;99.90;;;;;;5071025;28;20057;-85
2021/08/08 04:08:47;;;;;;;10.52;6.57;;;16.00;99.90;;;;;;5114928;28;20031;-84
2021/08/08 04:11:14;;;;;;;10.43;7.07;;;16.00;99.90;;;;;;5071760;28;20399;-84
2021/08/08 04:13:47;;;;;;;8.77;6.70;;;16.00;99.90;;;;;;5093827;28;20036;-84
2021/08/08 04:16:13;;;;;;;7.32;6.47;;;16.00;99.90;;;;;;5096799;28;20104;-84
2021/08/08 04:18:39;;;;;;;11.05;7.10;;;15.90;99.90;;;;;;5092945;28;20040;-84
2021/08/08 04:21:05;;;;;;;8.13;7.25;;;15.90;99.90;;;;;;5087234;28;20055;-85
2021/08/08 04:23:31;;;;;;;11.32;7.03;;;15.90;99.90;;;;;;5090545;28;20040;-85
2021/08/08 04:25:57;;;;;;;8.70;7.00;;;15.90;99.90;;;;;;5096543;28;20091;-84
2021/08/08 04:28:23;;;;;;;12.80;7.63;;;15.90;99.90;;;;;;5059636;28;20400;-84
2021/08/08 04:30:51;;;;;;;12.30;7.97;;;15.90;99.90;;;;;;5090385;28;20114;-84
2021/08/08 04:33:16;;;;;;;10.40;7.57;;;15.90;99.90;;;;;;5105459;28;20032;-84
2021/08/08 04:35:43;;;;;;;9.95;7.50;;;15.90;99.90;;;;;;5092353;28;20055;-84
2021/08/08 04:38:09;;;;;;;13.15;8.30;;;15.90;99.90;;;;;;5107020;28;20043;-83
2021/08/08 04:40:35;;;;;;;10.05;8.75;;;15.90;99.90;;;;;;5079571;28;20042;-84
2021/08/08 04:43:02;;;;;;;15.90;10.65;;;15.90;99.90;;;;;;5078073;28;20044;-84
2021/08/08 04:45:28;;;;;;;10.77;9.63;;;15.90;99.90;;;;;;5106231;28;20035;-84
2021/08/08 04:47:54;;;;;;;12.13;8.98;;;15.90;99.90;;;;;;5106154;28;20039;-85
2021/08/08 04:50:20;;;;;;;10.88;9.30;;;15.90;99.90;;;;;;5075064;28;20046;-84
2021/08/08 04:52:47;;;;;;;15.70;10.32;;;16.00;99.90;;;;;;5096088;28;20055;-84
2021/08/08 04:55:14;;;;;;;12.15;10.15;;;16.00;99.90;;;;;;5090065;28;20044;-84
2021/08/08 04:57:40;;;;;;;10.95;9.75;;;16.00;99.90;;;;;;5086966;28;20043;-84
2021/08/08 05:00:08;;;;;;;12.35;10.25;;;16.00;99.90;;;;;;5113381;28;20066;-84
2021/08/08 05:02:35;;;;;;;16.52;10.05;;;16.00;99.90;;;;;;5076121;28;20496;-84
2021/08/08 05:05:08;;;;;;;11.40;10.30;;;16.00;99.90;;;;;;5087183;28;20050;-85
2021/08/08 05:07:41;;;;;;;30.55;12.15;;;16.10;99.90;;;;;;5085133;28;20062;-84
2021/08/08 05:10:10;;;;;;;15.23;10.00;;;16.10;99.90;;;;;;5078596;28;20483;-84
2021/08/08 05:12:37;;;;;;;12.48;10.15;;;16.20;99.90;;;;;;5095707;28;20119;-84
2021/08/08 05:15:04;;;;;;;14.88;10.75;;;16.20;99.90;;;;;;5113707;28;20043;-84
2021/08/08 05:17:30;;;;;;;20.55;10.68;;;16.30;99.90;;;;;;5102620;28;20089;-84
2021/08/08 05:19:56;;;;;;;16.95;10.05;;;16.30;99.90;;;;;;5113991;28;20040;-84
2021/08/08 05:22:22;;;;;;;14.73;10.02;;;16.40;99.90;;;;;;5076647;28;20028;-84
2021/08/08 05:24:48;;;;;;;19.05;10.63;;;16.40;99.90;;;;;;5073555;28;20114;-85
2021/08/08 05:27:16;;;;;;;13.38;8.15;;;16.40;99.90;;;;;;5092290;28;20105;-85
2021/08/08 05:29:41;;;;;;;8.95;6.55;;;16.40;99.90;;;;;;5113803;28;20110;-85
2021/08/08 05:32:10;;;;;;;9.45;6.32;;;16.40;99.90;;;;;;5106012;28;20442;-85
2021/08/08 05:34:36;;;;;;;9.65;6.30;;;16.40;99.90;;;;;;5095294;28;20043;-85
2021/08/08 05:37:02;;;;;;;9.18;6.05;;;16.40;99.90;;;;;;5069691;28;20088;-85
2021/08/08 05:39:28;;;;;;;10.27;6.35;;;16.40;99.90;;;;;;5065893;28;20479;-85
2021/08/08 05:41:55;;;;;;;10.68;5.68;;;16.40;99.90;;;;;;5095497;28;20035;-84
2021/08/08 05:44:21;;;;;;;10.88;5.28;;;16.30;99.90;;;;;;5048712;28;20158;-85
2021/08/08 05:46:49;;;;;;;9.95;5.40;;;16.40;99.90;;;;;;5094956;28;20122;-85
2021/08/08 05:49:15;;;;;;;10.05;5.50;;;16.40;99.90;;;;;;5111783;28;20115;-85
2021/08/08 05:51:42;;;;;;;7.85;4.97;;;16.50;99.90;;;;;;5093205;28;20486;-85
2021/08/08 05:54:08;;;;;;;9.63;4.40;;;16.60;99.90;;;;;;5092931;28;20153;-85
2021/08/08 05:56:34;;;;;;;5.55;3.92;;;16.60;99.90;;;;;;5103628;28;20064;-84
2021/08/08 05:59:04;;;;;;;9.93;4.22;;;16.60;99.90;;;;;;5079722;28;20039;-84
2021/08/08 06:01:31;;;;;;;7.43;3.67;;;16.60;99.90;;;;;;5078227;28;20376;-84
2021/08/08 06:03:57;;;;;;;6.40;3.80;;;16.70;99.90;;;;;;5093906;28;20040;-84
2021/08/08 06:06:25;;;;;;;5.53;3.25;;;16.80;99.90;;;;;;5074975;28;20050;-84
2021/08/08 06:08:55;;;;;;;5.38;3.13;;;16.90;99.90;;;;;;5093285;28;20043;-85
2021/08/08 06:11:27;;;;;;;7.22;3.40;;;17.00;99.90;;;;;;5093359;28;20023;-85
2021/08/08 06:13:53;;;;;;;6.30;3.38;;;17.10;99.90;;;;;;5075175;28;20039;-85
2021/08/08 06:16:19;;;;;;;6.65;3.80;;;17.10;99.90;;;;;;5085209;28;20111;-85
2021/08/08 06:18:45;;;;;;;5.55;3.72;;;17.10;99.90;;;;;;5094885;28;20035;-85
2021/08/08 06:21:10;;;;;;;7.78;4.20;;;17.10;99.90;;;;;;5077984;28;20097;-84
2021/08/08 06:23:36;;;;;;;10.10;4.53;;;17.10;99.90;;;;;;5112480;28;20811;-80
2021/08/08 06:26:02;;;;;;;11.57;4.30;;;17.00;99.90;;;;;;5086107;28;20507;-80
2021/08/08 06:28:28;;;;;;;7.68;4.70;;;17.00;99.90;;;;;;5086868;28;20089;-80
2021/08/08 06:30:56;;;;;;;12.40;5.03;;;16.90;99.90;;;;;;5074807;28;20113;-81
2021/08/08 06:33:21;;;;;;;7.80;4.50;;;16.80;99.90;;;;;;5090362;28;20035;-80
2021/08/08 06:35:48;;;;;;;8.35;4.68;;;16.70;99.90;;;;;;5094409;28;20052;-80
2021/08/08 06:38:14;;;;;;;11.45;5.28;;;16.80;99.90;;;;;;5085745;28;20480;-80
2021/08/08 06:40:40;;;;;;;8.98;4.90;;;16.80;99.90;;;;;;5087219;28;20491;-80
2021/08/08 06:43:06;;;;;;;9.82;5.35;;;16.80;99.90;;;;;;5093539;28;20080;-80
2021/08/08 06:45:33;;;;;;;11.20;5.00;;;16.80;99.90;;;;;;5094916;28;20057;-80
2021/08/08 06:48:00;;;;;;;8.00;4.75;;;16.80;99.90;;;;;;5093001;28;20062;-77
2021/08/08 06:50:27;;;;;;;8.48;4.97;;;16.80;99.90;;;;;;5074658;28;20052;-79
2021/08/08 06:52:54;;;;;;;10.05;5.28;;;16.90;99.90;;;;;;5071607;28;20036;-79
2021/08/08 06:55:20;;;;;;;10.88;4.95;;;16.90;99.90;;;;;;5111335;28;20036;-78
2021/08/08 06:57:46;;;;;;;8.00;4.80;;;16.90;99.90;;;;;;5101080;28;20092;-78
2021/08/08 07:00:12;;;;;;;8.30;5.55;;;16.90;99.90;;;;;;5111792;28;20032;-78
2021/08/08 07:02:38;;;;;;;10.25;5.40;;;16.90;99.90;;;;;;5076590;28;20106;-78
2021/08/08 07:05:05;;;;;;;11.95;5.30;;;16.80;99.90;;;;;;5073988;28;20484;-78
2021/08/08 07:07:32;;;;;;;9.32;5.05;;;16.90;99.90;;;;;;5098687;28;20032;-78
2021/08/08 07:09:58;;;;;;;12.38;5.82;;;16.80;99.90;;;;;;5098426;28;20071;-78
2021/08/08 07:12:23;;;;;;;9.75;5.50;;;16.80;99.90;;;;;;5099315;28;20054;-78
2021/08/08 07:14:50;;;;;;;11.45;5.45;;;16.80;99.90;;;;;;5090215;28;20122;-78
2021/08/08 07:17:16;;;;;;;10.65;5.53;;;16.80;99.90;;;;;;5116198;28;20111;-78
2021/08/08 07:19:42;;;;;;;12.45;6.25;;;16.80;99.90;;;;;;5076628;28;20047;-78
2021/08/08 07:22:08;;;;;;;12.98;5.63;;;16.80;99.90;;;;;;5084501;28;20028;-78
2021/08/08 07:24:34;;;;;;;12.10;5.32;;;16.80;99.90;;;;;;5075643;28;20385;-78
2021/08/08 07:27:00;;;;;;;10.75;5.30;;;16.70;99.90;;;;;;5101122;28;20036;-78
2021/08/08 07:29:26;;;;;;;14.38;5.28;;;16.70;99.90;;;;;;5097992;28;20035;-78
2021/08/08 07:31:53;;;;;;;13.23;5.88;;;16.70;99.90;;;;;;5077729;28;20040;-78
2021/08/08 07:34:19;;;;;;;15.48;5.60;;;16.70;99.90;;;;;;5078832;28;20391;-78
2021/08/08 07:36:45;;;;;;;16.23;5.28;;;16.70;99.90;;;;;;5094696;28;20052;-78
2021/08/08 07:39:11;;;;;;;13.38;5.30;;;16.80;99.90;;;;;;5114985;28;20043;-78
2021/08/08 07:41:37;;;;;;;13.43;5.70;;;16.80;99.90;;;;;;5116009;28;20080;-78
2021/08/08 07:44:03;;;;;;;10.35;5.35;;;16.80;99.90;;;;;;5081063;28;20396;-78
2021/08/08 07:46:29;;;;;;;14.95;6.38;;;16.80;99.90;;;;;;5069546;28;20025;-78
2021/08/08 07:48:55;;;;;;;12.25;5.30;;;16.80;99.90;;;;;;5087357;28;20038;-79
2021/08/08 07:51:21;;;;;;;15.20;6.47;;;16.80;99.90;;;;;;5091798;28;20032;-78
2021/08/08 07:53:46;;;;;;;18.20;5.75;;;16.90;99.90;;;;;;5084685;28;20028;-78
2021/08/08 07:56:12;;;;;;;13.70;6.13;;;16.90;99.90;;;;;;5077926;28;20056;-79
2021/08/08 07:58:38;;;;;;;16.42;6.72;;;17.00;99.90;;;;;;5086672;28;20403;-86
2021/08/08 08:01:04;;;;;;;20.30;6.95;;;17.00;99.90;;;;;;5109992;28;20406;-86
2021/08/08 08:03:33;;;;;;;17.77;6.38;;;17.00;99.90;;;;;;5097283;28;20111;-88
2021/08/08 08:05:59;;;;;;;20.50;7.00;;;17.00;99.90;;;;;;5080135;28;20052;-80
2021/08/08 08:08:25;;;;;;;19.55;6.95;;;17.10;99.90;;;;;;5071352;28;20430;-81
2021/08/08 08:10:53;;;;;;;17.08;6.38;;;17.10;99.90;;;;;;5107769;28;20034;-79
2021/08/08 08:13:19;;;;;;;22.13;6.60;;;17.10;99.90;;;;;;5091329;28;20528;-81
2021/08/08 08:15:47;;;;;;;18.23;6.68;;;17.10;99.90;;;;;;5089326;28;20044;-80
2021/08/08 08:18:13;;;;;;;17.20;6.68;;;17.10;99.90;;;;;;5084840;28;20115;-80
2021/08/08 08:20:39;;;;;;;19.90;7.15;;;17.10;99.90;;;;;;5104272;28;20039;-80
2021/08/08 08:23:05;;;;;;;16.35;7.30;;;17.00;99.90;;;;;;5107927;27;20032;-80
2021/08/08 08:25:34;;;;;;;19.13;8.07;;;17.10;99.90;;;;;;5055826;28;20525;-81
2021/08/08 08:28:00;;;;;;;19.05;6.70;;;17.10;99.90;;;;;;5110660;28;20051;-82
2021/08/08 08:30:25;;;;;;;16.98;6.72;;;17.10;99.90;;;;;;5078663;28;20039;-83
2021/08/08 08:32:51;;;;;;;20.30;7.70;;;17.00;99.90;;;;;;5096347;28;20039;-82
2021/08/08 08:35:22;;;;;;;22.92;7.15;;;17.00;99.90;;;;;;5114686;28;20055;-82
2021/08/08 08:37:51;;;;;;;16.95;7.18;;;17.00;99.90;;;;;;5076369;28;20032;-83
2021/08/08 08:44:49;;;;;;;19.10;7.30;;;17.00;99.90;;;;;;4921510;29;20103;-85
2021/08/08 08:47:47;;;;;;;20.70;7.88;;;16.90;99.90;;;;;;5003496;28;20099;-88
2021/08/08 08:50:38;;;;;;;26.10;7.53;;;16.90;99.90;;;;;;5024619;28;20048;-83
2021/08/08 08:53:05;;;;;;;24.98;8.00;;;17.00;99.90;;;;;;5072225;28;20040;-83
2021/08/08 08:55:31;;;;;;;24.60;7.80;;;17.10;99.90;;;;;;5096501;28;20108;-83
2021/08/08 08:58:01;;;;;;;17.60;7.65;;;17.10;99.90;;;;;;5096200;28;20035;-86
2021/08/08 09:00:27;;;;;;;22.63;8.23;;;17.10;99.90;;;;;;5076891;28;20032;-84
2021/08/08 09:02:53;;;;;;;18.00;6.10;;;17.20;99.90;;;;;;5069761;28;20054;-84
2021/08/08 09:05:21;;;;;;;21.35;7.28;;;17.30;99.90;;;;;;5086627;28;20047;-85
2021/08/08 09:07:48;;;;;;;20.85;7.10;;;17.20;99.90;;;;;;5086255;28;20126;-83
2021/08/08 09:10:15;;;;;;;21.85;6.60;;;17.20;99.90;;;;;;5078016;28;20093;-85
2021/08/08 09:12:41;;;;;;;17.45;5.90;;;17.20;99.90;;;;;;5094369;28;20115;-82
2021/08/08 09:15:08;;;;;;;14.38;4.75;;;17.20;99.90;;;;;;5111062;27;20062;-83
2021/08/08 09:17:39;;;;;;;10.95;4.75;;;17.10;99.90;;;;;;5072562;28;20046;-83
2021/08/08 09:20:14;;;;;;;16.77;5.03;;;17.10;99.90;;;;;;5099393;28;20111;-82
2021/08/08 09:22:40;;;;;;;14.45;5.55;;;17.20;99.90;;;;;;5096226;28;20067;-82
2021/08/08 09:25:17;;;;;;;14.77;5.45;;;17.20;99.90;;;;;;5100281;28;20111;-82
2021/08/08 09:27:44;;;;;;;13.95;5.53;;;17.20;99.90;;;;;;5096027;28;20036;-82
2021/08/08 09:30:19;;;;;;;14.57;5.45;;;17.20;99.90;;;;;;5095926;28;20028;-82
2021/08/08 09:32:49;;;;;;;18.13;5.82;;;17.30;99.90;;;;;;5091669;28;20055;-91
2021/08/08 09:35:22;;;;;;;17.20;4.88;;;17.30;99.90;;;;;;5069463;28;20062;-89
2021/08/08 09:38:03;;;;;;;19.08;5.50;;;17.30;99.90;;;;;;5097106;28;20365;-91
2021/08/08 09:40:32;;;;;;;21.45;5.28;;;17.30;99.90;;;;;;5094445;28;20049;-91
2021/08/08 09:43:00;;;;;;;20.83;5.55;;;17.40;99.90;;;;;;5095855;28;20519;-91
2021/08/08 09:45:35;;;;;;;16.45;5.05;;;17.40;99.90;;;;;;5096631;28;20036;-92
2021/08/08 09:48:01;;;;;;;15.63;5.00;;;17.40;99.90;;;;;;5096033;28;20031;-90
2021/08/08 09:50:30;;;;;;;17.63;5.30;;;17.40;99.90;;;;;;5094193;28;20078;-91
2021/08/08 09:52:59;;;;;;;17.35;5.20;;;17.40;99.90;;;;;;5094926;28;20084;-90
2021/08/08 09:55:51;;;;;;;19.15;5.60;;;17.40;99.90;;;;;;5100068;28;20044;-89
2021/08/08 09:58:21;;;;;;;16.60;4.90;;;17.40;99.90;;;;;;5079127;28;20035;-89
2021/08/08 10:00:57;;;;;;;18.60;5.53;;;17.40;99.90;;;;;;5095480;28;20399;-85
2021/08/08 10:03:27;;;;;;;20.33;5.63;;;17.40;99.90;;;;;;5113670;28;20050;-88
2021/08/08 10:05:56;;;;;;;18.15;5.35;;;17.40;99.90;;;;;;5094198;28;20039;-89
2021/08/08 10:08:25;;;;;;;24.05;6.47;;;17.40;99.90;;;;;;5064452;28;20044;-89
2021/08/08 10:11:17;;;;;;;20.77;6.13;;;17.50;99.90;;;;;;5113490;28;20039;-86
2021/08/08 10:14:04;;;;;;;30.95;6.43;;;17.50;99.90;;;;;;5097238;28;20059;-85
2021/08/08 10:29:09;;;;;;;22.77;5.50;;;18.10;99.90;;;;;;4922686;29;20127;-87
2021/08/08 10:31:41;;;;;;;19.30;5.40;;;18.20;99.90;;;;;;4987549;28;20111;-86
2021/08/08 10:34:07;;;;;;;22.60;6.03;;;18.30;99.90;;;;;;5053280;28;20120;-84
2021/08/08 10:36:35;;;;;;;22.92;4.72;;;18.30;99.90;;;;;;5092142;28;20032;-78
2021/08/08 10:39:10;;;;;;;25.15;5.57;;;18.40;99.90;;;;;;5112131;28;20113;-78
2021/08/08 10:41:37;;;;;;;22.90;5.60;;;18.40;99.90;;;;;;5110696;28;20468;-82
2021/08/08 10:44:07;;;;;;;21.02;6.05;;;18.60;99.90;;;;;;5075673;28;20052;-82
2021/08/08 10:46:44;;;;;;;22.65;4.75;;;18.70;99.90;;;;;;5101854;28;20127;-85
2021/08/08 10:49:10;;;;;;;24.25;4.88;;;18.70;99.90;;;;;;5097784;28;20043;-85
2021/08/08 10:51:36;;;;;;;17.30;4.60;;;18.80;99.90;;;;;;5082769;28;20055;-85
2021/08/08 10:54:07;;;;;;;25.67;4.80;;;18.80;99.90;;;;;;5079124;28;20047;-85
2021/08/08 10:56:44;;;;;;;22.23;5.40;;;18.80;99.90;;;;;;5116858;28;20483;-85
2021/08/08 10:59:14;;;;;;;23.30;5.00;;;18.80;99.90;;;;;;5117120;28;20041;-85
2021/08/08 11:01:40;;;;;;;22.35;5.22;;;18.90;99.90;;;;;;5114984;28;20483;-86
2021/08/08 11:04:09;;;;;;;19.08;4.75;;;18.90;99.90;;;;;;5104794;28;20114;-85
2021/08/08 11:06:36;;;;;;;19.30;5.15;;;19.30;99.90;;;;;;5115207;28;20039;-85
2021/08/08 11:09:04;;;;;;;17.42;4.18;;;19.00;99.90;;;;;;5116640;28;20107;-82
2021/08/08 11:11:35;;;;;;;14.88;3.92;;;19.10;99.90;;;;;;5079914;28;20515;-82
2021/08/08 11:14:10;;;;;;;17.65;4.22;;;19.10;99.90;;;;;;5098176;28;20136;-84
2021/08/08 11:16:37;;;;;;;19.02;4.00;;;19.10;99.90;;;;;;5098223;28;20040;-85
2021/08/08 11:19:03;;;;;;;20.23;4.68;;;19.10;99.90;;;;;;5067095;28;20051;-84
2021/08/08 11:21:29;;;;;;;23.52;5.50;;;19.00;99.90;;;;;;5116764;28;20036;-85
2021/08/08 11:23:57;;;;;;;15.38;4.78;;;18.90;99.90;;;;;;5114886;28;20036;-85
2021/08/08 11:26:26;;;;;;;16.08;4.13;;;18.90;99.90;;;;;;5105660;28;20057;-85
2021/08/08 11:29:01;;;;;;;20.77;4.68;;;18.90;99.90;;;;;;5079252;28;20036;-85
2021/08/08 11:31:34;;;;;;;18.47;4.67;;;19.10;99.90;;;;;;5110755;28;20430;-85
2021/08/08 11:34:05;;;;;;;15.35;4.78;;;19.20;99.90;;;;;;5093660;28;20281;-85
2021/08/08 11:36:38;;;;;;;16.17;4.15;;;19.30;99.90;;;;;;5116063;28;20046;-85
2021/08/08 11:39:07;;;;;;;16.13;4.43;;;19.40;99.90;;;;;;5097855;28;20031;-85
2021/08/08 11:41:34;;;;;;;17.50;4.47;;;19.50;99.90;;;;;;5114075;28;20056;-83
2021/08/08 11:44:07;;;;;;;12.63;3.78;;;19.50;99.90;;;;;;5097969;28;20036;-83
2021/08/08 11:46:33;;;;;;;12.63;3.60;;;19.50;99.90;;;;;;5115814;28;20039;-83
2021/08/08 11:48:59;;;;;;;15.25;4.60;;;19.60;99.90;;;;;;5081037;28;20499;-84
2021/08/08 11:51:25;;;;;;;19.13;4.70;;;19.40;99.90;;;;;;5113941;28;20050;-83
2021/08/08 11:53:56;;;;;;;18.38;4.30;;;19.50;99.90;;;;;;5097729;28;20035;-84
2021/08/08 11:56:28;;;;;;;17.02;4.35;;;19.50;99.90;;;;;;5115606;28;20188;-84
2021/08/08 11:58:56;;;;;;;16.85;3.90;;;19.50;99.90;;;;;;5090373;28;20116;-85
2021/08/08 12:01:26;;;;;;;16.25;4.00;;;19.50;99.90;;;;;;5099177;28;20027;-86
2021/08/08 12:04:06;;;;;;;15.70;4.45;;;19.50;99.90;;;;;;5079662;28;20028;-86
2021/08/08 12:06:32;;;;;;;15.07;4.10;;;19.50;99.90;;;;;;5094121;28;20429;-85
2021/08/08 12:08:58;;;;;;;10.85;3.67;;;19.40;99.90;;;;;;5115253;28;20028;-85
2021/08/08 12:11:26;;;;;;;13.18;3.90;;;19.40;99.90;;;;;;5097551;28;20048;-86
2021/08/08 12:14:06;;;;;;;13.63;4.35;;;19.40;99.90;;;;;;5082659;28;20028;-86
2021/08/08 12:16:37;;;;;;;15.93;4.47;;;19.30;99.90;;;;;;5079701;28;20032;-85
2021/08/08 12:19:04;;;;;;;13.20;3.83;;;19.30;99.90;;;;;;5112128;28;20106;-86
2021/08/08 12:21:38;;;;;;;15.85;3.40;;;19.20;99.90;;;;;;5089111;28;20106;-86
2021/08/08 12:24:11;;;;;;;17.50;4.20;;;19.30;99.90;;;;;;5092979;28;20103;-86
2021/08/08 12:26:53;;;;;;;18.88;3.95;;;19.30;99.90;;;;;;5068726;28;20056;-86
2021/08/08 12:29:29;;;;;;;15.55;4.00;;;19.40;99.90;;;;;;5063579;28;20462;-86
2021/08/08 12:32:09;;;;;;;14.80;4.20;;;19.60;99.90;;;;;;5086943;28;20118;-86
2021/08/08 12:34:35;;;;;;;16.67;3.50;;;19.70;99.90;;;;;;5094671;28;20052;-86
2021/08/08 12:37:03;;;;;;;21.10;4.07;;;19.70;99.90;;;;;;5107644;28;20093;-85
2021/08/08 12:39:37;;;;;;;13.38;3.67;;;19.70;99.90;;;;;;5097751;28;20042;-86
2021/08/08 12:42:22;;;;;;;19.58;4.38;;;19.70;99.90;;;;;;5092748;28;20426;-86
2021/08/08 12:44:59;;;;;;;20.05;4.03;;;19.70;99.90;;;;;;5096660;28;20066;-86
2021/08/08 12:47:26;;;;;;;16.77;3.80;;;19.60;99.90;;;;;;5079097;28;20047;-86
2021/08/08 12:49:53;;;;;;;17.20;3.70;;;19.50;99.90;;;;;;5081001;28;20115;-86
2021/08/08 12:52:19;;;;;;;15.20;3.50;;;19.40;99.90;;;;;;5096733;28;20036;-86
2021/08/08 12:54:45;;;;;;;20.13;3.58;;;19.40;99.90;;;;;;5109107;28;20461;-86
2021/08/08 12:57:11;;;;;;;13.82;3.28;;;19.40;99.90;;;;;;5114010;28;20028;-86
2021/08/08 12:59:37;;;;;;;16.83;3.83;;;19.40;99.90;;;;;;5096299;28;20502;-86
2021/08/08 13:02:03;;;;;;;16.13;3.58;;;19.40;99.90;;;;;;5096329;28;20174;-86